QNJ weather

Annemasse Airport
Annemasse, Rhône Alpes, France

Public forecast

Using degrees Celsius for public forecast. Weather courtesy of forecast.io.

Closest aviation weather report (METAR) to Annemasse Airport

Closest report is Geneva Cointrin International Airport, 7.2 nm (13.3 km) WNW. Retrieved 2019/10/20 07:20 UTC (37 minutes ago):

LSGG 200720Z VRB02KT 7000 SCT005 BKN011 13/13 Q1009 NOSIG

Closest aviation forecast (TAF) to Annemasse Airport

Closest forecast is Geneva Cointrin International Airport, 7.2 nm (13.3 km) WNW. Retrieved 2019/10/20 09:37 UTC (0 seconds ago):

TAF LSGG 200825Z 2009/2115 VRB02KT 9999 FEW004 BKN015 TX17/2015Z TN11/2105Z TX16/2114Z BECMG 2012/2014 05010KT SCT040 BECMG 2017/2020 VRB03KT BECMG 2102/2104 RA